sensor_id;sensor_type;location;lat;lon;timestamp;pressure;altitude;pressure_sealevel;temperature
18474;BMP180;30265;52.408;13.500;2022-11-15T00:06:02;101299.00;;;5.10
18474;BMP180;30265;52.408;13.500;2022-11-15T00:16:43;101290.00;;;5.00
18474;BMP180;30265;52.408;13.500;2022-11-15T00:27:25;101285.00;;;5.00
18474;BMP180;30265;52.408;13.500;2022-11-15T00:38:06;101282.00;;;4.90
18474;BMP180;30265;52.408;13.500;2022-11-15T00:48:49;101274.00;;;4.80
18474;BMP180;30265;52.408;13.500;2022-11-15T00:59:29;101257.00;;;4.80
18474;BMP180;30265;52.408;13.500;2022-11-15T01:10:11;101250.00;;;4.50
18474;BMP180;30265;52.408;13.500;2022-11-15T01:20:52;101251.00;;;4.50
18474;BMP180;30265;52.408;13.500;2022-11-15T01:31:34;101234.00;;;4.30
18474;BMP180;30265;52.408;13.500;2022-11-15T01:42:15;101211.00;;;4.20
18474;BMP180;30265;52.408;13.500;2022-11-15T01:52:56;101197.00;;;4.20
18474;BMP180;30265;52.408;13.500;2022-11-15T02:03:41;101180.00;;;4.20
18474;BMP180;30265;52.408;13.500;2022-11-15T02:14:25;101167.00;;;4.30
18474;BMP180;30265;52.408;13.500;2022-11-15T02:25:24;101169.00;;;4.50
18474;BMP180;30265;52.408;13.500;2022-11-15T02:36:12;101181.00;;;4.40
18474;BMP180;30265;52.408;13.500;2022-11-15T02:47:00;101164.00;;;4.30
18474;BMP180;30265;52.408;13.500;2022-11-15T02:58:18;101169.00;;;4.30
18474;BMP180;30265;52.408;13.500;2022-11-15T03:09:07;101159.00;;;4.10
18474;BMP180;30265;52.408;13.500;2022-11-15T03:19:53;101147.00;;;4.20
18474;BMP180;30265;52.408;13.500;2022-11-15T03:30:36;101151.00;;;4.10
18474;BMP180;30265;52.408;13.500;2022-11-15T03:41:23;101155.00;;;4.00
18474;BMP180;30265;52.408;13.500;2022-11-15T03:52:05;101144.00;;;4.00
18474;BMP180;30265;52.408;13.500;2022-11-15T04:02:47;101148.00;;;4.00
18474;BMP180;30265;52.408;13.500;2022-11-15T04:13:28;101137.00;;;4.20
18474;BMP180;30265;52.408;13.500;2022-11-15T04:24:11;101123.00;;;4.30
18474;BMP180;30265;52.408;13.500;2022-11-15T04:34:54;101123.00;;;3.90
18474;BMP180;30265;52.408;13.500;2022-11-15T04:45:36;101121.00;;;3.80
18474;BMP180;30265;52.408;13.500;2022-11-15T04:56:16;101116.00;;;4.20
18474;BMP180;30265;52.408;13.500;2022-11-15T05:17:21;101113.00;;;4.00
18474;BMP180;30265;52.408;13.500;2022-11-15T05:28:03;101096.00;;;4.00
18474;BMP180;30265;52.408;13.500;2022-11-15T05:38:46;101107.00;;;3.90
18474;BMP180;30265;52.408;13.500;2022-11-15T05:49:31;101111.00;;;3.90
18474;BMP180;30265;52.408;13.500;2022-11-15T06:00:14;101124.00;;;3.80
18474;BMP180;30265;52.408;13.500;2022-11-15T06:10:55;101118.00;;;4.10
18474;BMP180;30265;52.408;13.500;2022-11-15T06:21:37;101126.00;;;4.10
18474;BMP180;30265;52.408;13.500;2022-11-15T06:32:18;101125.00;;;4.20
18474;BMP180;30265;52.408;13.500;2022-11-15T06:43:02;101121.00;;;4.40
18474;BMP180;30265;52.408;13.500;2022-11-15T06:53:43;101126.00;;;4.60
18474;BMP180;30265;52.408;13.500;2022-11-15T07:04:26;101134.00;;;4.80
18474;BMP180;30265;52.408;13.500;2022-11-15T07:15:08;101143.00;;;5.00
18474;BMP180;30265;52.408;13.500;2022-11-15T07:25:50;101141.00;;;5.30
18474;BMP180;30265;52.408;13.500;2022-11-15T07:36:30;101144.00;;;5.60
18474;BMP180;30265;52.408;13.500;2022-11-15T07:47:13;101145.00;;;6.10
18474;BMP180;30265;52.408;13.500;2022-11-15T07:58:00;101137.00;;;6.40
18474;BMP180;30265;52.408;13.500;2022-11-15T08:08:42;101136.00;;;6.80
18474;BMP180;30265;52.408;13.500;2022-11-15T08:19:22;101119.00;;;7.20
18474;BMP180;30265;52.408;13.500;2022-11-15T08:30:06;101132.00;;;7.60
18474;BMP180;30265;52.408;13.500;2022-11-15T08:40:47;101127.00;;;8.10
18474;BMP180;30265;52.408;13.500;2022-11-15T08:51:29;101121.00;;;8.40
18474;BMP180;30265;52.408;13.500;2022-11-15T09:02:14;101127.00;;;9.00
18474;BMP180;30265;52.408;13.500;2022-11-15T09:12:57;101133.00;;;9.80
18474;BMP180;30265;52.408;13.500;2022-11-15T09:23:41;101126.00;;;10.60
18474;BMP180;30265;52.408;13.500;2022-11-15T09:34:22;101113.00;;;11.20
18474;BMP180;30265;52.408;13.500;2022-11-15T09:45:15;101129.00;;;11.80
18474;BMP180;30265;52.408;13.500;2022-11-15T09:56:08;101123.00;;;12.10
18474;BMP180;30265;52.408;13.500;2022-11-15T10:06:32;101124.00;;;12.90
18474;BMP180;30265;52.408;13.500;2022-11-15T10:17:13;101100.00;;;13.20
18474;BMP180;30265;52.408;13.500;2022-11-15T10:27:41;101075.00;;;13.30
18474;BMP180;30265;52.408;13.500;2022-11-15T10:38:10;101056.00;;;13.60
18474;BMP180;30265;52.408;13.500;2022-11-15T10:48:32;101051.00;;;13.80
18474;BMP180;30265;52.408;13.500;2022-11-15T10:58:57;101046.00;;;14.60
18474;BMP180;30265;52.408;13.500;2022-11-15T11:09:31;101044.00;;;14.80
18474;BMP180;30265;52.408;13.500;2022-11-15T11:20:00;101024.00;;;14.10
18474;BMP180;30265;52.408;13.500;2022-11-15T11:30:32;101017.00;;;14.20
18474;BMP180;30265;52.408;13.500;2022-11-15T11:41:05;100994.00;;;14.70
18474;BMP180;30265;52.408;13.500;2022-11-15T11:51:34;100989.00;;;14.80
18474;BMP180;30265;52.408;13.500;2022-11-15T12:02:02;101001.00;;;15.70
18474;BMP180;30265;52.408;13.500;2022-11-15T12:12:36;100976.00;;;15.80
18474;BMP180;30265;52.408;13.500;2022-11-15T12:23:04;100977.00;;;16.20
18474;BMP180;30265;52.408;13.500;2022-11-15T12:33:33;100965.00;;;16.00
18474;BMP180;30265;52.408;13.500;2022-11-15T12:43:57;100946.00;;;16.10
18474;BMP180;30265;52.408;13.500;2022-11-15T13:05:56;100933.00;;;16.50
18474;BMP180;30265;52.408;13.500;2022-11-15T13:16:20;100936.00;;;16.10
18474;BMP180;30265;52.408;13.500;2022-11-15T13:26:43;100930.00;;;16.00
18474;BMP180;30265;52.408;13.500;2022-11-15T13:37:09;100904.00;;;15.20
18474;BMP180;30265;52.408;13.500;2022-11-15T13:47:35;100905.00;;;15.10
18474;BMP180;30265;52.408;13.500;2022-11-15T13:57:58;100906.00;;;14.80
18474;BMP180;30265;52.408;13.500;2022-11-15T14:08:23;100908.00;;;14.60
18474;BMP180;30265;52.408;13.500;2022-11-15T14:18:47;100922.00;;;14.20
18474;BMP180;30265;52.408;13.500;2022-11-15T14:29:23;100919.00;;;14.00
18474;BMP180;30265;52.408;13.500;2022-11-15T14:39:45;100918.00;;;13.60
18474;BMP180;30265;52.408;13.500;2022-11-15T14:50:12;100913.00;;;13.20
18474;BMP180;30265;52.408;13.500;2022-11-15T15:00:34;100902.00;;;12.60
18474;BMP180;30265;52.408;13.500;2022-11-15T15:10:58;100884.00;;;12.40
18474;BMP180;30265;52.408;13.500;2022-11-15T15:21:22;100877.00;;;12.20
18474;BMP180;30265;52.408;13.500;2022-11-15T15:31:45;100879.00;;;11.80
18474;BMP180;30265;52.408;13.500;2022-11-15T15:42:08;100867.00;;;11.60
18474;BMP180;30265;52.408;13.500;2022-11-15T15:52:31;100866.00;;;11.30
18474;BMP180;30265;52.408;13.500;2022-11-15T16:02:53;100858.00;;;11.30
18474;BMP180;30265;52.408;13.500;2022-11-15T16:13:16;100849.00;;;10.90
18474;BMP180;30265;52.408;13.500;2022-11-15T16:23:37;100847.00;;;10.60
18474;BMP180;30265;52.408;13.500;2022-11-15T16:34:00;100843.00;;;10.30
18474;BMP180;30265;52.408;13.500;2022-11-15T16:44:22;100846.00;;;10.00
18474;BMP180;30265;52.408;13.500;2022-11-15T16:54:46;100838.00;;;9.80
18474;BMP180;30265;52.408;13.500;2022-11-15T17:05:08;100822.00;;;9.50
18474;BMP180;30265;52.408;13.500;2022-11-15T17:15:38;100817.00;;;9.10
18474;BMP180;30265;52.408;13.500;2022-11-15T17:26:00;100814.00;;;8.90
18474;BMP180;30265;52.408;13.500;2022-11-15T17:36:45;100800.00;;;8.80
18474;BMP180;30265;52.408;13.500;2022-11-15T17:47:08;100798.00;;;8.60
18474;BMP180;30265;52.408;13.500;2022-11-15T17:57:31;100801.00;;;8.40
18474;BMP180;30265;52.408;13.500;2022-11-15T18:07:55;100793.00;;;8.20
18474;BMP180;30265;52.408;13.500;2022-11-15T18:18:19;100790.00;;;8.00
18474;BMP180;30265;52.408;13.500;2022-11-15T18:28:47;100783.00;;;8.00
18474;BMP180;30265;52.408;13.500;2022-11-15T18:39:11;100768.00;;;7.80
18474;BMP180;30265;52.408;13.500;2022-11-15T18:49:36;100764.00;;;7.70
18474;BMP180;30265;52.408;13.500;2022-11-15T18:59:59;100763.00;;;7.50
18474;BMP180;30265;52.408;13.500;2022-11-15T19:10:20;100757.00;;;7.20
18474;BMP180;30265;52.408;13.500;2022-11-15T19:20:43;100757.00;;;7.10
18474;BMP180;30265;52.408;13.500;2022-11-15T19:31:06;100760.00;;;6.90
18474;BMP180;30265;52.408;13.500;2022-11-15T19:41:30;100755.00;;;6.90
18474;BMP180;30265;52.408;13.500;2022-11-15T19:51:55;100752.00;;;6.90
18474;BMP180;30265;52.408;13.500;2022-11-15T20:03:06;100762.00;;;6.90
18474;BMP180;30265;52.408;13.500;2022-11-15T20:14:23;100765.00;;;6.80
18474;BMP180;30265;52.408;13.500;2022-11-15T20:25:10;100760.00;;;6.80
18474;BMP180;30265;52.408;13.500;2022-11-15T20:35:56;100760.00;;;6.70
18474;BMP180;30265;52.408;13.500;2022-11-15T20:46:20;100743.00;;;6.60
18474;BMP180;30265;52.408;13.500;2022-11-15T20:56:56;100760.00;;;6.50
18474;BMP180;30265;52.408;13.500;2022-11-15T21:07:38;100749.00;;;6.50
18474;BMP180;30265;52.408;13.500;2022-11-15T21:18:00;100741.00;;;6.30
18474;BMP180;30265;52.408;13.500;2022-11-15T21:28:23;100735.00;;;6.10
18474;BMP180;30265;52.408;13.500;2022-11-15T21:38:44;100736.00;;;6.10
18474;BMP180;30265;52.408;13.500;2022-11-15T21:49:07;100722.00;;;6.00
18474;BMP180;30265;52.408;13.500;2022-11-15T21:59:29;100725.00;;;6.00
18474;BMP180;30265;52.408;13.500;2022-11-15T22:09:53;100724.00;;;5.90
18474;BMP180;30265;52.408;13.500;2022-11-15T22:20:15;100716.00;;;5.80
18474;BMP180;30265;52.408;13.500;2022-11-15T22:30:58;100707.00;;;5.80
18474;BMP180;30265;52.408;13.500;2022-11-15T22:41:20;100704.00;;;5.80
18474;BMP180;30265;52.408;13.500;2022-11-15T22:51:44;100687.00;;;5.80
18474;BMP180;30265;52.408;13.500;2022-11-15T23:02:06;100689.00;;;5.80
18474;BMP180;30265;52.408;13.500;2022-11-15T23:12:31;100683.00;;;5.80
18474;BMP180;30265;52.408;13.500;2022-11-15T23:23:11;100662.00;;;5.70
18474;BMP180;30265;52.408;13.500;2022-11-15T23:33:35;100653.00;;;5.70
18474;BMP180;30265;52.408;13.500;2022-11-15T23:44:14;100649.00;;;5.60
18474;BMP180;30265;52.408;13.500;2022-11-15T23:54:37;100644.00;;;5.50
